Time;durP1;ratioP1;P1;durP2;ratioP2;P2;SDS_P1;SDS_P2;PMS_P1;PMS_P2;Temp;Humidity;BMP_temperature;BMP_pressure;BME280_temperature;BME280_humidity;BME280_pressure;Samples;Min_cycle;Max_cycle;Signal;HPM_P1;HPM_P2
2023/12/24 00:01:36;;;;;;;16.38;5.97;;;;;;;-148.88;100.00;-17125.47;5057604;28;20029;-83
2023/12/24 00:04:02;;;;;;;15.95;11.05;;;;;;;-148.88;100.00;-17125.47;5039389;28;20024;-83
2023/12/24 00:06:28;;;;;;;10.43;5.97;;;;;;;-148.88;100.00;-17125.47;5039413;28;20070;-83
2023/12/24 00:08:53;;;;;;;9.45;6.38;;;;;;;-148.88;100.00;-17125.47;5039789;28;20025;-83
2023/12/24 00:11:19;;;;;;;10.45;5.90;;;;;;;-148.88;100.00;-17125.47;5039641;28;20490;-83
2023/12/24 00:13:44;;;;;;;14.48;6.55;;;;;;;-148.88;100.00;-17125.47;5040150;28;20132;-83
2023/12/24 00:16:09;;;;;;;11.60;5.85;;;;;;;-148.88;100.00;-17125.47;5043733;23;20108;-85
2023/12/24 00:18:35;;;;;;;11.07;5.68;;;;;;;-148.88;100.00;-17125.47;5019463;28;20123;-85
2023/12/24 00:21:00;;;;;;;16.90;11.27;;;;;;;-148.88;100.00;-17125.47;5037005;28;20509;-85
2023/12/24 00:23:26;;;;;;;16.67;6.30;;;;;;;-148.88;100.00;-17125.47;5019837;28;20100;-86
2023/12/24 00:25:51;;;;;;;11.25;5.85;;;;;;;-148.88;100.00;-17125.47;5020106;28;20482;-83
2023/12/24 00:28:17;;;;;;;14.27;6.78;;;;;;;-148.88;100.00;-17125.47;5039922;28;20079;-85
2023/12/24 00:30:43;;;;;;;13.00;6.55;;;;;;;-148.88;100.00;-17125.47;5019084;28;20047;-85
2023/12/24 00:33:10;;;;;;;12.48;6.40;;;;;;;-148.88;100.00;-17125.47;5018727;28;20053;-85
2023/12/24 00:35:36;;;;;;;10.35;6.00;;;;;;;-148.88;100.00;-17125.47;5019086;28;20124;-85
2023/12/24 00:38:01;;;;;;;11.48;5.50;;;;;;;-148.88;100.00;-17125.47;5036441;28;20025;-86
2023/12/24 00:40:30;;;;;;;10.00;6.78;;;;;;;-148.88;100.00;-17125.47;5016328;28;20033;-85
2023/12/24 00:43:01;;;;;;;15.40;12.05;;;;;;;-148.88;100.00;-17125.47;5018515;28;20018;-85
2023/12/24 00:45:27;;;;;;;11.55;5.93;;;;;;;-148.88;100.00;-17125.47;5018793;28;20083;-85
2023/12/24 00:47:58;;;;;;;9.80;5.53;;;;;;;-148.88;100.00;-17125.47;5018728;28;20025;-85
2023/12/24 00:50:24;;;;;;;12.27;6.35;;;;;;;-148.88;100.00;-17125.47;5018373;28;20053;-85
2023/12/24 00:52:49;;;;;;;12.60;5.53;;;;;;;-148.88;100.00;-17125.47;5034983;28;20118;-85
2023/12/24 00:55:17;;;;;;;11.82;5.72;;;;;;;-148.88;100.00;-17125.47;5018469;28;20609;-85
2023/12/24 00:57:45;;;;;;;11.27;5.82;;;;;;;-148.88;100.00;-17125.47;5018323;28;20075;-85
2023/12/24 01:00:11;;;;;;;9.52;5.07;;;;;;;-148.88;100.00;-17125.47;5036251;28;20032;-86
2023/12/24 01:02:40;;;;;;;12.77;10.43;;;;;;;-148.88;100.00;-17125.47;5018638;28;20022;-85
2023/12/24 01:05:08;;;;;;;10.35;4.78;;;;;;;-148.88;100.00;-17125.47;5018387;28;20036;-85
2023/12/24 01:07:34;;;;;;;13.02;10.27;;;;;;;-148.88;100.00;-17125.47;5018454;28;20038;-85
2023/12/24 01:09:59;;;;;;;8.63;4.05;;;;;;;-148.88;100.00;-17125.47;5036216;28;20029;-86
2023/12/24 01:12:32;;;;;;;8.98;5.00;;;;;;;-148.88;100.00;-17125.47;5035562;28;20097;-85
2023/12/24 01:15:01;;;;;;;9.30;5.22;;;;;;;-148.88;100.00;-17125.47;5017868;28;20079;-85
2023/12/24 01:17:28;;;;;;;11.63;5.13;;;;;;;-148.88;100.00;-17125.47;5018042;28;20068;-86
2023/12/24 01:19:58;;;;;;;13.82;9.82;;;;;;;-148.88;100.00;-17125.47;5017956;28;20542;-86
2023/12/24 01:22:27;;;;;;;12.82;5.10;;;;;;;-148.88;100.00;-17125.47;5018346;28;20022;-85
2023/12/24 01:24:52;;;;;;;15.77;10.75;;;;;;;-148.88;100.00;-17125.47;5035721;28;20116;-85
2023/12/24 01:27:18;;;;;;;9.93;5.40;;;;;;;-148.88;100.00;-17125.47;5035970;28;20445;-86
2023/12/24 01:29:49;;;;;;;9.10;5.10;;;;;;;-148.88;100.00;-17125.47;5036102;28;20021;-86
2023/12/24 01:32:15;;;;;;;11.20;4.38;;;;;;;-148.88;100.00;-17125.47;5018312;28;20364;-85
2023/12/24 01:34:40;;;;;;;9.55;5.13;;;;;;;-148.88;100.00;-17125.47;5018291;28;20541;-86
2023/12/24 01:37:06;;;;;;;9.32;5.18;;;;;;;-148.88;100.00;-17125.47;5035864;28;20052;-86
2023/12/24 01:39:32;;;;;;;11.68;5.68;;;;;;;-148.88;100.00;-17125.47;5017891;28;20029;-85
2023/12/24 01:41:58;;;;;;;11.80;5.13;;;;;;;-148.88;100.00;-17125.47;5017728;28;20025;-85
2023/12/24 01:44:23;;;;;;;13.48;11.05;;;;;;;-148.88;100.00;-17125.47;5021922;28;20025;-82
2023/12/24 01:46:49;;;;;;;11.15;5.20;;;;;;;-148.88;100.00;-17125.47;5018825;28;20021;-83
2023/12/24 01:49:15;;;;;;;16.67;10.85;;;;;;;-148.88;100.00;-17125.47;5036218;28;20032;-82
2023/12/24 01:51:41;;;;;;;10.15;5.35;;;;;;;-148.88;100.00;-17125.47;5018525;28;20025;-83
2023/12/24 01:54:06;;;;;;;10.77;4.90;;;;;;;-148.88;100.00;-17125.47;5035876;28;20044;-83
2023/12/24 01:56:32;;;;;;;12.18;5.80;;;;;;;-148.88;100.00;-17125.47;5018125;28;20105;-82
2023/12/24 01:58:59;;;;;;;14.43;4.90;;;;;;;-148.88;100.00;-17125.47;5035397;28;20021;-82
2023/12/24 02:01:26;;;;;;;13.48;10.80;;;;;;;-148.88;100.00;-17125.47;5021052;28;20111;-83
2023/12/24 02:03:52;;;;;;;11.93;5.95;;;;;;;-148.88;100.00;-17125.47;5021497;28;20044;-83
2023/12/24 02:06:18;;;;;;;15.68;11.40;;;;;;;-148.88;100.00;-17125.47;5022006;28;20021;-83
2023/12/24 02:08:44;;;;;;;11.75;5.85;;;;;;;-148.88;100.00;-17125.47;5022782;28;20052;-82
2023/12/24 02:11:09;;;;;;;14.38;6.38;;;;;;;-148.88;100.00;-17125.47;5040443;28;20029;-83
2023/12/24 02:13:35;;;;;;;9.73;5.40;;;;;;;-148.88;100.00;-17125.47;5023001;28;20025;-83
2023/12/24 02:16:05;;;;;;;13.20;6.20;;;;;;;-148.88;100.00;-17125.47;5040256;28;20041;-83
2023/12/24 02:18:32;;;;;;;12.02;5.15;;;;;;;-148.88;100.00;-17125.47;5022134;28;20420;-83
2023/12/24 02:21:06;;;;;;;15.68;6.95;;;;;;;-148.88;100.00;-17125.47;5019661;28;20056;-82
2023/12/24 02:23:32;;;;;;;14.57;6.53;;;;;;;-148.88;100.00;-17125.47;5018159;28;20371;-82
2023/12/24 02:26:03;;;;;;;14.88;7.38;;;;;;;-148.88;100.00;-17125.47;5018083;28;20497;-82
2023/12/24 02:28:36;;;;;;;15.05;6.90;;;;;;;-148.88;100.00;-17125.47;5018028;28;20032;-82
2023/12/24 02:31:08;;;;;;;19.00;14.30;;;;;;;-148.88;100.00;-17125.47;5017942;28;20489;-82
2023/12/24 02:33:38;;;;;;;14.88;6.97;;;;;;;-148.88;100.00;-17125.47;5017368;28;20072;-81
2023/12/24 02:36:07;;;;;;;11.68;6.03;;;;;;;-148.88;100.00;-17125.47;5018930;28;20031;-83
2023/12/24 02:38:32;;;;;;;16.63;7.60;;;;;;;-148.88;100.00;-17125.47;5021707;28;20364;-82
2023/12/24 02:40:57;;;;;;;20.08;15.35;;;;;;;-148.88;100.00;-17125.47;5021702;28;20507;-83
2023/12/24 02:43:23;;;;;;;16.30;7.50;;;;;;;-148.88;100.00;-17125.47;5021700;28;20018;-82
2023/12/24 02:45:48;;;;;;;16.42;6.95;;;;;;;-148.88;100.00;-17125.47;5040366;28;20021;-83
2023/12/24 02:48:14;;;;;;;15.43;7.38;;;;;;;-148.88;100.00;-17125.47;5021888;28;20091;-82
2023/12/24 02:50:39;;;;;;;14.75;7.57;;;;;;;-148.88;100.00;-17125.47;5039533;28;20025;-82
2023/12/24 02:53:04;;;;;;;22.75;15.85;;;;;;;-148.88;100.00;-17125.47;5021408;28;20214;-82
2023/12/24 02:55:30;;;;;;;18.67;7.38;;;;;;;-148.88;100.00;-17125.47;5019768;28;20446;-82
2023/12/24 02:57:55;;;;;;;21.98;15.75;;;;;;;-148.88;100.00;-17125.47;5035295;28;20037;-81
2023/12/24 03:00:20;;;;;;;16.58;8.32;;;;;;;-148.88;100.00;-17125.47;5017613;28;20017;-83
2023/12/24 03:02:46;;;;;;;14.68;7.57;;;;;;;-148.88;100.00;-17125.47;5017482;28;20056;-83
2023/12/24 03:05:11;;;;;;;17.67;8.23;;;;;;;-148.88;100.00;-17125.47;5017298;28;20497;-83
2023/12/24 03:07:38;;;;;;;13.07;6.97;;;;;;;-148.88;100.00;-17125.47;5017513;28;20021;-82
2023/12/24 03:10:04;;;;;;;20.23;13.80;;;;;;;-148.88;100.00;-17125.47;5017070;28;20025;-83
2023/12/24 03:12:30;;;;;;;16.60;6.93;;;;;;;-148.88;100.00;-17125.47;5019350;28;20017;-84
2023/12/24 03:14:55;;;;;;;19.08;13.25;;;;;;;-148.88;100.00;-17125.47;5020305;28;20105;-83
2023/12/24 03:17:21;;;;;;;13.20;6.80;;;;;;;-148.88;100.00;-17125.47;5020612;28;20029;-83
2023/12/24 03:19:47;;;;;;;18.17;13.77;;;;;;;-148.88;100.00;-17125.47;5021246;28;20026;-83
2023/12/24 03:22:12;;;;;;;16.15;7.70;;;;;;;-148.88;100.00;-17125.47;5038863;28;20036;-83
2023/12/24 03:24:38;;;;;;;15.27;6.85;;;;;;;-148.88;100.00;-17125.47;5020848;28;20031;-83
2023/12/24 03:27:03;;;;;;;18.13;7.68;;;;;;;-148.88;100.00;-17125.47;5038718;28;20029;-83
2023/12/24 03:29:28;;;;;;;21.10;14.85;;;;;;;-148.88;100.00;-17125.47;5038873;28;20026;-83
2023/12/24 03:31:54;;;;;;;17.92;8.43;;;;;;;-148.88;100.00;-17125.47;5017635;28;20474;-83
2023/12/24 03:34:20;;;;;;;15.82;6.82;;;;;;;-148.88;100.00;-17125.47;5035166;28;20393;-83
2023/12/24 03:36:45;;;;;;;18.08;7.55;;;;;;;-148.88;100.00;-17125.47;5017347;28;20079;-83
2023/12/24 03:39:11;;;;;;;15.02;7.07;;;;;;;-148.88;100.00;-17125.47;5035589;28;20095;-83
2023/12/24 03:41:36;;;;;;;14.38;7.68;;;;;;;-148.88;100.00;-17125.47;5017394;28;20455;-83
2023/12/24 03:44:03;;;;;;;18.25;6.88;;;;;;;-148.88;100.00;-17125.47;5035806;28;20014;-82
2023/12/24 03:46:28;;;;;;;20.77;14.57;;;;;;;-148.88;100.00;-17125.47;5017586;28;20025;-82
2023/12/24 03:48:53;;;;;;;14.63;6.75;;;;;;;-148.88;100.00;-17125.47;5019776;28;20549;-83
2023/12/24 03:51:20;;;;;;;17.30;7.57;;;;;;;-148.88;100.00;-17125.47;5020597;28;20072;-83
2023/12/24 03:53:45;;;;;;;13.32;7.07;;;;;;;-148.88;100.00;-17125.47;5038369;28;20029;-83
2023/12/24 03:56:11;;;;;;;15.40;7.32;;;;;;;-148.88;100.00;-17125.47;5020333;28;20497;-83
2023/12/24 03:58:37;;;;;;;16.38;6.65;;;;;;;-148.88;100.00;-17125.47;5038798;28;20068;-83
2023/12/24 04:01:12;;;;;;;16.88;12.48;;;;;;;-148.88;100.00;-17125.47;5020567;28;20026;-83
2023/12/24 04:03:37;;;;;;;13.20;5.88;;;;;;;-148.88;100.00;-17125.47;5038386;28;20018;-82
2023/12/24 04:06:15;;;;;;;11.82;6.15;;;;;;;-148.88;100.00;-17125.47;5019709;28;20148;-82
2023/12/24 04:08:40;;;;;;;12.43;6.35;;;;;;;-148.88;100.00;-17125.47;5018899;28;20076;-83
2023/12/24 04:11:16;;;;;;;17.15;11.70;;;;;;;-148.88;100.00;-17125.47;5018518;28;20029;-82
2023/12/24 04:13:42;;;;;;;12.98;5.50;;;;;;;-148.88;100.00;-17125.47;5016315;28;20031;-86
2023/12/24 04:16:07;;;;;;;11.95;5.00;;;;;;;-148.88;100.00;-17125.47;5016697;28;20029;-86
2023/12/24 04:18:33;;;;;;;13.60;4.55;;;;;;;-148.88;100.00;-17125.47;5016313;28;20048;-86
2023/12/24 04:20:59;;;;;;;11.68;4.65;;;;;;;-148.88;100.00;-17125.47;5016398;28;20021;-85
2023/12/24 04:23:24;;;;;;;9.80;4.25;;;;;;;-148.88;100.00;-17125.47;5033761;28;20041;-86
2023/12/24 04:25:50;;;;;;;10.40;8.10;;;;;;;-148.88;100.00;-17125.47;5034472;28;20061;-86
2023/12/24 04:28:16;;;;;;;6.78;3.70;;;;;;;-148.88;100.00;-17125.47;5038714;28;20068;-86
2023/12/24 04:30:41;;;;;;;11.07;3.95;;;;;;;-148.88;100.00;-17125.47;5019898;28;20529;-86
2023/12/24 04:33:10;;;;;;;11.45;3.53;;;;;;;-148.88;100.00;-17125.47;5020173;28;20018;-86
2023/12/24 04:35:35;;;;;;;10.57;7.00;;;;;;;-148.88;100.00;-17125.47;5020086;28;20486;-86
2023/12/24 04:38:02;;;;;;;7.55;2.97;;;;;;;-148.88;100.00;-17125.47;5019858;28;20051;-86
2023/12/24 04:40:28;;;;;;;7.30;2.97;;;;;;;-148.88;100.00;-17125.47;5020280;28;20112;-86
2023/12/24 04:42:53;;;;;;;6.57;2.70;;;;;;;-148.88;100.00;-17125.47;5021576;28;20151;-86
2023/12/24 04:45:18;;;;;;;7.97;3.35;;;;;;;-148.88;100.00;-17125.47;5021041;28;20111;-86
2023/12/24 04:47:44;;;;;;;8.27;3.58;;;;;;;-148.88;100.00;-17125.47;5039076;28;20473;-86
2023/12/24 04:50:09;;;;;;;5.75;2.88;;;;;;;-148.88;100.00;-17125.47;5020944;28;20112;-86
2023/12/24 04:52:37;;;;;;;7.55;2.70;;;;;;;-148.88;100.00;-17125.47;5037947;28;20021;-85
2023/12/24 04:55:04;;;;;;;9.13;3.28;;;;;;;-148.88;100.00;-17125.47;5019665;28;20065;-86
2023/12/24 04:57:30;;;;;;;4.65;2.85;;;;;;;-148.88;100.00;-17125.47;5019155;28;20048;-84
2023/12/24 04:59:55;;;;;;;8.30;3.47;;;;;;;-148.88;100.00;-17125.47;5019571;28;20025;-84
2023/12/24 05:02:20;;;;;;;7.15;2.85;;;;;;;-148.88;100.00;-17125.47;5040720;28;20042;-81
2023/12/24 05:04:46;;;;;;;6.90;2.40;;;;;;;-148.88;100.00;-17125.47;5022136;28;20065;-81
2023/12/24 05:07:11;;;;;;;6.88;3.17;;;;;;;-148.88;100.00;-17125.47;5040423;28;20025;-81
2023/12/24 05:09:39;;;;;;;5.05;2.50;;;;;;;-148.88;100.00;-17125.47;5040167;28;20049;-81
2023/12/24 05:12:05;;;;;;;5.55;2.83;;;;;;;-148.88;100.00;-17125.47;5022940;28;20041;-81
2023/12/24 05:14:33;;;;;;;7.72;3.00;;;;;;;-148.88;100.00;-17125.47;5040392;28;20108;-81
2023/12/24 05:16:59;;;;;;;5.95;2.88;;;;;;;-148.88;100.00;-17125.47;5023675;28;20387;-81
2023/12/24 05:19:24;;;;;;;7.25;5.43;;;;;;;-148.88;100.00;-17125.47;5023378;28;20482;-80
2023/12/24 05:21:49;;;;;;;8.30;5.97;;;;;;;-148.88;100.00;-17125.47;5041374;28;20025;-84
2023/12/24 05:24:15;;;;;;;5.43;2.95;;;;;;;-148.88;100.00;-17125.47;5019795;28;20178;-84
2023/12/24 05:26:40;;;;;;;8.27;3.42;;;;;;;-148.88;100.00;-17125.47;5018940;28;20053;-84
2023/12/24 05:29:05;;;;;;;6.40;3.80;;;;;;;-148.88;100.00;-17125.47;5019164;28;20393;-84
2023/12/24 05:31:31;;;;;;;7.80;3.50;;;;;;;-148.88;100.00;-17125.47;5019118;28;20033;-82
2023/12/24 05:33:56;;;;;;;9.55;7.30;;;;;;;-148.88;100.00;-17125.47;5018674;28;20067;-84
2023/12/24 05:36:22;;;;;;;6.55;3.63;;;;;;;-148.88;100.00;-17125.47;5018472;28;20026;-84
2023/12/24 05:38:47;;;;;;;8.15;7.07;;;;;;;-148.88;100.00;-17125.47;5018988;28;20084;-84
2023/12/24 05:41:15;;;;;;;5.68;3.35;;;;;;;-148.88;100.00;-17125.47;5019400;28;20031;-84
2023/12/24 05:43:40;;;;;;;6.03;2.97;;;;;;;-148.88;100.00;-17125.47;5019524;28;20108;-81
2023/12/24 05:46:12;;;;;;;4.95;2.85;;;;;;;-148.88;100.00;-17125.47;5019386;28;20025;-84
2023/12/24 05:48:37;;;;;;;6.47;3.40;;;;;;;-148.88;100.00;-17125.47;5018503;28;20040;-84
2023/12/24 05:51:03;;;;;;;5.97;3.22;;;;;;;-148.88;100.00;-17125.47;5018265;28;20462;-84
2023/12/24 05:53:28;;;;;;;6.70;5.72;;;;;;;-148.88;100.00;-17125.47;5018130;28;20036;-84
2023/12/24 05:55:53;;;;;;;7.63;6.05;;;;;;;-148.88;100.00;-17125.47;5036046;28;20517;-84
2023/12/24 05:58:20;;;;;;;4.72;2.60;;;;;;;-148.88;100.00;-17125.47;5018709;28;20048;-84
2023/12/24 06:00:46;;;;;;;4.45;2.72;;;;;;;-148.88;100.00;-17125.47;5019695;28;20026;-81
2023/12/24 06:03:11;;;;;;;5.60;3.05;;;;;;;-148.88;100.00;-17125.47;5019494;28;20017;-83
2023/12/24 06:05:36;;;;;;;7.68;5.70;;;;;;;-148.88;100.00;-17125.47;5037222;28;20029;-82
2023/12/24 06:08:02;;;;;;;7.10;5.88;;;;;;;-148.88;100.00;-17125.47;5036709;28;20029;-82
2023/12/24 06:10:27;;;;;;;5.72;2.80;;;;;;;-148.88;100.00;-17125.47;5018657;28;20025;-84
2023/12/24 06:12:54;;;;;;;5.05;2.75;;;;;;;-148.88;100.00;-17125.47;5018462;28;20014;-82
2023/12/24 06:15:19;;;;;;;5.45;2.78;;;;;;;-148.88;100.00;-17125.47;5037471;28;20040;-83
2023/12/24 06:17:45;;;;;;;7.05;5.82;;;;;;;-148.88;100.00;-17125.47;5019221;28;20029;-83
2023/12/24 06:20:10;;;;;;;6.55;3.58;;;;;;;-148.88;100.00;-17125.47;5019220;28;20506;-83
2023/12/24 06:22:36;;;;;;;3.83;2.60;;;;;;;-148.88;100.00;-17125.47;5019542;28;20053;-83
2023/12/24 06:25:02;;;;;;;5.22;2.97;;;;;;;-148.88;100.00;-17125.47;5019785;28;20529;-83
2023/12/24 06:27:28;;;;;;;5.90;2.63;;;;;;;-148.88;100.00;-17125.47;5037904;28;20390;-83
2023/12/24 06:29:53;;;;;;;4.70;2.67;;;;;;;-148.88;100.00;-17125.47;5020790;28;20474;-83
2023/12/24 06:32:19;;;;;;;5.85;4.80;;;;;;;-148.88;100.00;-17125.47;5038616;28;20021;-83
2023/12/24 06:34:46;;;;;;;5.47;4.60;;;;;;;-148.88;100.00;-17125.47;5038169;28;20048;-83
2023/12/24 06:37:12;;;;;;;3.35;1.90;;;;;;;-148.88;100.00;-17125.47;5038052;28;20041;-84
2023/12/24 06:39:38;;;;;;;4.40;2.58;;;;;;;-148.88;100.00;-17125.47;5037803;28;20029;-83
2023/12/24 06:42:03;;;;;;;4.95;2.20;;;;;;;-148.88;100.00;-17125.47;5037689;28;20040;-83
2023/12/24 06:44:29;;;;;;;5.40;4.05;;;;;;;-148.88;100.00;-17125.47;5019613;28;20026;-83
2023/12/24 06:46:54;;;;;;;4.90;4.15;;;;;;;-148.88;100.00;-17125.47;5019415;28;20072;-83
2023/12/24 06:49:20;;;;;;;3.25;2.10;;;;;;;-148.88;100.00;-17125.47;5021530;28;20021;-84
2023/12/24 06:51:45;;;;;;;3.88;1.75;;;;;;;-148.88;100.00;-17125.47;5037206;28;20033;-83
2023/12/24 06:54:10;;;;;;;3.03;1.90;;;;;;;-148.88;100.00;-17125.47;5020739;28;20071;-82
2023/12/24 06:56:36;;;;;;;3.97;3.53;;;;;;;-148.88;100.00;-17125.47;5038048;28;20033;-83
2023/12/24 06:59:02;;;;;;;4.35;2.00;;;;;;;-148.88;100.00;-17125.47;5018539;28;20083;-82
2023/12/24 07:01:28;;;;;;;3.70;2.50;;;;;;;-148.88;100.00;-17125.47;5036116;28;20041;-82
2023/12/24 07:03:53;;;;;;;3.72;2.03;;;;;;;-148.88;100.00;-17125.47;5035402;28;20379;-82
2023/12/24 07:06:19;;;;;;;4.18;3.60;;;;;;;-148.88;100.00;-17125.47;5035370;28;20372;-82
2023/12/24 07:08:44;;;;;;;3.70;2.10;;;;;;;-148.88;100.00;-17125.47;5018173;28;20426;-82
2023/12/24 07:11:10;;;;;;;4.22;2.08;;;;;;;-148.88;100.00;-17125.47;5037287;28;20078;-83
2023/12/24 07:13:35;;;;;;;4.15;2.35;;;;;;;-148.88;100.00;-17125.47;5020083;28;20067;-83
2023/12/24 07:16:00;;;;;;;4.25;3.85;;;;;;;-148.88;100.00;-17125.47;5038606;28;20048;-82
2023/12/24 07:18:26;;;;;;;4.40;2.50;;;;;;;-148.88;100.00;-17125.47;5035847;28;20025;-82
2023/12/24 07:20:52;;;;;;;4.03;2.22;;;;;;;-148.88;100.00;-17125.47;5017284;28;20079;-82
2023/12/24 07:23:17;;;;;;;4.25;3.70;;;;;;;-148.88;100.00;-17125.47;5017773;28;20036;-82
2023/12/24 07:25:42;;;;;;;4.15;3.42;;;;;;;-148.88;100.00;-17125.47;5036832;28;20030;-83
2023/12/24 07:28:08;;;;;;;3.05;1.77;;;;;;;-148.88;100.00;-17125.47;5036296;28;20489;-82
2023/12/24 07:30:33;;;;;;;2.38;1.40;;;;;;;-148.88;100.00;-17125.47;5018140;28;20136;-83
2023/12/24 07:32:59;;;;;;;3.55;3.13;;;;;;;-148.88;100.00;-17125.47;5035307;28;20409;-82
2023/12/24 07:35:24;;;;;;;3.17;1.70;;;;;;;-148.88;100.00;-17125.47;5018430;28;20033;-82
2023/12/24 07:37:50;;;;;;;3.95;1.40;;;;;;;-148.88;100.00;-17125.47;5036418;28;20079;-82
2023/12/24 07:40:15;;;;;;;2.88;1.55;;;;;;;-148.88;100.00;-17125.47;5018115;28;20029;-82
2023/12/24 07:42:41;;;;;;;2.78;2.30;;;;;;;-148.88;100.00;-17125.47;5018330;28;20104;-83
2023/12/24 07:45:07;;;;;;;2.38;1.58;;;;;;;-148.88;100.00;-17125.47;5035837;28;20098;-83
2023/12/24 07:47:33;;;;;;;2.20;1.35;;;;;;;-148.88;100.00;-17125.47;5017801;28;20040;-82
2023/12/24 07:49:58;;;;;;;2.10;1.73;;;;;;;-148.88;100.00;-17125.47;5035245;28;20059;-82
2023/12/24 07:52:24;;;;;;;2.17;1.77;;;;;;;-148.88;100.00;-17125.47;5034828;28;20032;-82
2023/12/24 07:54:49;;;;;;;2.08;1.17;;;;;;;-148.88;100.00;-17125.47;5035480;28;20099;-82
2023/12/24 07:57:15;;;;;;;1.77;0.90;;;;;;;-148.88;100.00;-17125.47;5017251;28;20018;-83
2023/12/24 07:59:40;;;;;;;2.47;1.50;;;;;;;-148.88;100.00;-17125.47;5037383;28;20471;-81
2023/12/24 08:02:06;;;;;;;1.67;1.02;;;;;;;-148.88;100.00;-17125.47;5041624;28;20022;-81
2023/12/24 08:04:31;;;;;;;1.67;1.20;;;;;;;-148.88;100.00;-17125.47;5042658;28;20025;-81
2023/12/24 08:06:57;;;;;;;2.15;1.50;;;;;;;-148.88;100.00;-17125.47;5042368;28;20545;-81
2023/12/24 08:09:23;;;;;;;1.77;1.17;;;;;;;-148.88;100.00;-17125.47;5024082;28;20021;-81
2023/12/24 08:11:48;;;;;;;1.27;0.80;;;;;;;-148.88;100.00;-17125.47;5041332;28;20127;-81
2023/12/24 08:14:13;;;;;;;1.30;1.00;;;;;;;-148.88;100.00;-17125.47;5040213;28;20022;-81
2023/12/24 08:16:39;;;;;;;1.85;0.85;;;;;;;-148.88;100.00;-17125.47;5040106;28;20505;-80
2023/12/24 08:19:05;;;;;;;1.33;0.80;;;;;;;-148.88;100.00;-17125.47;5039971;28;20048;-81
2023/12/24 08:21:31;;;;;;;2.05;1.17;;;;;;;-148.88;100.00;-17125.47;5039545;28;20031;-80
2023/12/24 08:23:56;;;;;;;1.88;1.05;;;;;;;-148.88;100.00;-17125.47;5021010;28;20385;-81
2023/12/24 08:26:22;;;;;;;1.67;1.20;;;;;;;-148.88;100.00;-17125.47;5038557;28;20021;-80
2023/12/24 08:28:47;;;;;;;1.70;1.00;;;;;;;-148.88;100.00;-17125.47;5020365;28;20514;-81
2023/12/24 08:31:13;;;;;;;1.75;0.60;;;;;;;-148.88;100.00;-17125.47;5038121;28;20384;-81
2023/12/24 08:33:39;;;;;;;3.00;0.65;;;;;;;-148.88;100.00;-17125.47;5037940;28;20117;-81
2023/12/24 08:36:04;;;;;;;2.65;1.40;;;;;;;-148.88;100.00;-17125.47;5040881;28;20107;-80
2023/12/24 08:38:30;;;;;;;1.63;1.05;;;;;;;-148.88;100.00;-17125.47;5042346;28;20056;-80
2023/12/24 08:40:56;;;;;;;2.03;1.02;;;;;;;-148.88;100.00;-17125.47;5041764;28;20025;-80
2023/12/24 08:43:21;;;;;;;1.58;0.70;;;;;;;-148.88;100.00;-17125.47;5042204;28;20021;-80
2023/12/24 08:45:47;;;;;;;2.67;0.80;;;;;;;-148.88;100.00;-17125.47;5025253;28;20125;-81
2023/12/24 08:48:12;;;;;;;2.10;1.33;;;;;;;-148.88;100.00;-17125.47;5040909;28;20048;-80
2023/12/24 08:50:37;;;;;;;2.55;1.10;;;;;;;-148.88;100.00;-17125.47;5039744;28;20028;-81
2023/12/24 08:53:03;;;;;;;3.28;1.88;;;;;;;-148.88;100.00;-17125.47;5039483;28;20048;-84
2023/12/24 08:55:29;;;;;;;2.88;2.28;;;;;;;-148.88;100.00;-17125.47;5039298;28;20026;-84
2023/12/24 08:57:54;;;;;;;2.50;2.00;;;;;;;-148.88;100.00;-17125.47;5020642;28;20021;-83
2023/12/24 09:00:20;;;;;;;2.05;1.00;;;;;;;-148.88;100.00;-17125.47;5020124;28;20030;-84
2023/12/24 09:02:47;;;;;;;2.25;1.15;;;;;;;-148.88;100.00;-17125.47;5020111;28;20025;-84
2023/12/24 09:05:13;;;;;;;2.33;1.85;;;;;;;-148.88;100.00;-17125.47;5037828;28;20025;-83
2023/12/24 09:07:38;;;;;;;2.80;1.88;;;;;;;-148.88;100.00;-17125.47;5037932;28;20021;-84
2023/12/24 09:10:04;;;;;;;2.60;1.90;;;;;;;-148.88;100.00;-17125.47;5038189;28;20078;-83
2023/12/24 09:12:30;;;;;;;2.80;1.00;;;;;;;-148.88;100.00;-17125.47;5039024;28;20026;-84
2023/12/24 09:14:55;;;;;;;3.17;1.10;;;;;;;-148.88;100.00;-17125.47;5039129;28;20425;-84
2023/12/24 09:17:21;;;;;;;2.47;1.77;;;;;;;-148.88;100.00;-17125.47;5038229;28;20039;-84
2023/12/24 09:19:46;;;;;;;2.45;1.83;;;;;;;-148.88;100.00;-17125.47;5020739;28;20029;-84
2023/12/24 09:22:12;;;;;;;1.92;1.10;;;;;;;-148.88;100.00;-17125.47;5020542;28;20022;-84
2023/12/24 09:24:37;;;;;;;1.38;0.98;;;;;;;-148.88;100.00;-17125.47;5020398;28;20032;-84
2023/12/24 09:27:03;;;;;;;2.45;1.92;;;;;;;-148.88;100.00;-17125.47;5020112;28;20051;-84
2023/12/24 09:29:28;;;;;;;4.05;1.92;;;;;;;-148.88;100.00;-17125.47;5019377;28;20408;-83
2023/12/24 09:31:54;;;;;;;2.50;1.80;;;;;;;-148.88;100.00;-17125.47;5037636;28;20021;-84
2023/12/24 09:34:20;;;;;;;2.72;1.73;;;;;;;-148.88;100.00;-17125.47;5019457;28;20025;-84
2023/12/24 09:36:45;;;;;;;2.05;1.00;;;;;;;-148.88;100.00;-17125.47;5019382;28;20045;-84
2023/12/24 09:39:11;;;;;;;2.13;1.60;;;;;;;-148.88;100.00;-17125.47;5019440;28;20021;-84
2023/12/24 09:41:37;;;;;;;2.22;1.73;;;;;;;-148.88;100.00;-17125.47;5020945;28;20125;-84
2023/12/24 09:44:03;;;;;;;2.25;1.40;;;;;;;-148.88;100.00;-17125.47;5039916;28;20021;-84
2023/12/24 09:46:28;;;;;;;1.58;0.98;;;;;;;-148.88;100.00;-17125.47;5038304;28;20029;-84
2023/12/24 09:48:54;;;;;;;2.20;1.70;;;;;;;-148.88;100.00;-17125.47;5038751;28;20030;-84
2023/12/24 09:51:19;;;;;;;2.05;1.75;;;;;;;-148.88;100.00;-17125.47;5019741;28;20028;-85
2023/12/24 09:53:49;;;;;;;2.13;1.70;;;;;;;-148.88;100.00;-17125.47;5019286;28;20021;-84
2023/12/24 09:56:15;;;;;;;2.58;1.85;;;;;;;-148.88;100.00;-17125.47;5036942;28;20483;-84
2023/12/24 09:58:41;;;;;;;1.95;1.13;;;;;;;-148.88;100.00;-17125.47;5037420;28;20144;-84
2023/12/24 10:01:07;;;;;;;2.25;1.85;;;;;;;-148.88;100.00;-17125.47;5037030;28;20478;-84
2023/12/24 10:03:32;;;;;;;2.53;1.90;;;;;;;-148.88;100.00;-17125.47;5036387;28;20080;-84
2023/12/24 10:06:08;;;;;;;2.05;0.90;;;;;;;-148.88;100.00;-17125.47;5037160;28;20021;-84
2023/12/24 10:08:37;;;;;;;2.20;1.20;;;;;;;-148.88;100.00;-17125.47;5036785;28;20057;-84
2023/12/24 10:11:20;;;;;;;1.80;1.00;;;;;;;-148.88;100.00;-17125.47;5018895;28;20083;-84
2023/12/24 10:13:46;;;;;;;2.05;1.27;;;;;;;-148.88;100.00;-17125.47;5018755;28;20028;-84
2023/12/24 10:16:12;;;;;;;3.30;2.10;;;;;;;-148.88;100.00;-17125.47;5037188;28;20056;-84
2023/12/24 10:18:48;;;;;;;2.03;1.10;;;;;;;-148.88;100.00;-17125.47;5037846;28;20398;-83
2023/12/24 10:21:13;;;;;;;3.55;2.45;;;;;;;-148.88;100.00;-17125.47;5037427;28;20021;-84
2023/12/24 10:23:43;;;;;;;3.35;1.83;;;;;;;-148.88;100.00;-17125.47;5038080;28;20053;-84
2023/12/24 10:26:11;;;;;;;1.83;0.88;;;;;;;-148.88;100.00;-17125.47;5038663;28;20039;-85
2023/12/24 10:28:49;;;;;;;2.38;1.80;;;;;;;-148.88;100.00;-17125.47;5020407;28;20048;-85
2023/12/24 10:31:15;;;;;;;2.40;1.98;;;;;;;-148.88;100.00;-17125.47;5019977;28;20025;-84
2023/12/24 10:33:41;;;;;;;1.95;1.10;;;;;;;-148.88;100.00;-17125.47;5020658;28;20033;-84
2023/12/24 10:36:07;;;;;;;3.47;2.25;;;;;;;-148.88;100.00;-17125.47;5021359;28;20509;-84
2023/12/24 10:38:34;;;;;;;3.22;1.48;;;;;;;-148.88;100.00;-17125.47;5020715;28;20021;-84
2023/12/24 10:41:00;;;;;;;2.67;1.88;;;;;;;-148.88;100.00;-17125.47;5020200;28;20029;-84
2023/12/24 10:43:25;;;;;;;1.88;1.60;;;;;;;-148.88;100.00;-17125.47;5021172;28;20056;-84
2023/12/24 10:45:51;;;;;;;2.25;1.70;;;;;;;-148.88;100.00;-17125.47;5020192;28;20025;-84
2023/12/24 10:48:16;;;;;;;2.40;1.50;;;;;;;-148.88;100.00;-17125.47;5020198;28;20116;-84
2023/12/24 10:50:41;;;;;;;3.10;2.35;;;;;;;-148.88;100.00;-17125.47;5021433;28;20032;-84
2023/12/24 10:53:07;;;;;;;2.53;2.17;;;;;;;-148.88;100.00;-17125.47;5020506;28;20389;-85